Terminal Aerodrome Forecast
Issued by NWS Wilmington, OH

Current Version | Previous Version | Graphics & Text | Print | Product List | Glossary On
Versions: 1 2 3 4 5 6 7 8 9 10 11 12 13 14 15 16 17 18
000
FTUS41 KILN 010300 AAA
TAFDAY
TAF AMD
KDAY 010338Z 0104/0124 11005KT 1 1/2SM -SN OVC020
      TEMPO 0105/0109 3/4SM -SN OVC008
     FM010900 14005KT 1SM -SN OVC005
      TEMPO 0110/0114 1/2SM SN OVC001
     FM011600 24006KT 5SM -SN OVC015
     FM011800 14005KT 1SM -SN OVC006=

USA.gov is the U.S. government's official web portal to all federal, state and local government web resources and services.